createdAt,value
2023-11-09T00:00:00.465Z,5.82
2023-11-09T00:02:27.295Z,5.51
2023-11-09T00:04:54.190Z,5.96
2023-11-09T00:07:24.921Z,5.78
2023-11-09T00:09:54.585Z,5.77
2023-11-09T00:12:21.437Z,5.63
2023-11-09T00:14:51.109Z,5.78
2023-11-09T00:17:21.301Z,5.84
2023-11-09T00:19:48.046Z,5.59
2023-11-09T00:22:15.496Z,5.80
2023-11-09T00:24:42.249Z,5.63
2023-11-09T00:27:08.823Z,5.68
2023-11-09T00:29:36.490Z,5.53
2023-11-09T00:32:03.240Z,5.61
2023-11-09T00:34:30.120Z,5.57
2023-11-09T00:36:58.293Z,5.69
2023-11-09T00:39:26.403Z,5.77
2023-11-09T00:41:53.090Z,5.54
2023-11-09T00:44:19.696Z,5.68
2023-11-09T00:46:46.325Z,5.48
2023-11-09T00:49:14.051Z,5.62
2023-11-09T00:51:40.654Z,5.55
2023-11-09T00:54:07.738Z,5.44
2023-11-09T00:56:34.378Z,5.52
2023-11-09T00:59:01.224Z,5.30
2023-11-09T01:01:28.317Z,5.33
2023-11-09T01:03:55.320Z,5.57
2023-11-09T01:06:21.908Z,5.34
2023-11-09T01:08:48.770Z,5.15
2023-11-09T01:11:22.889Z,5.49
2023-11-09T01:13:49.541Z,5.59
2023-11-09T01:16:16.192Z,5.58
2023-11-09T01:18:43.036Z,5.75
2023-11-09T01:21:10.248Z,5.71
2023-11-09T01:23:37.431Z,5.72
2023-11-09T01:26:05.016Z,5.54
2023-11-09T01:28:32.671Z,5.63
2023-11-09T01:30:59.679Z,5.59
2023-11-09T01:33:26.401Z,5.92
2023-11-09T01:35:53.024Z,5.73
2023-11-09T01:38:19.665Z,5.86
2023-11-09T01:40:52.605Z,5.71
2023-11-09T01:43:19.437Z,5.71
2023-11-09T01:45:46.620Z,5.85
2023-11-09T01:48:16.575Z,5.81
2023-11-09T01:50:43.225Z,5.62
2023-11-09T01:53:11.172Z,5.70
2023-11-09T01:55:38.080Z,5.76
2023-11-09T01:58:04.950Z,5.67
2023-11-09T02:00:31.747Z,5.89
2023-11-09T02:03:00.691Z,6.06
2023-11-09T02:05:27.713Z,5.92
2023-11-09T02:07:55.038Z,5.94
2023-11-09T02:10:22.606Z,5.96
2023-11-09T02:12:50.567Z,5.85
2023-11-09T02:15:17.622Z,5.77
2023-11-09T02:17:44.682Z,5.85
2023-11-09T02:20:14.473Z,5.42
2023-11-09T02:22:42.852Z,5.59
2023-11-09T02:25:10.815Z,5.49
2023-11-09T02:27:37.645Z,5.51
2023-11-09T02:30:05.395Z,5.57
2023-11-09T02:32:32.255Z,5.48
2023-11-09T02:34:58.935Z,5.51
2023-11-09T02:37:26.062Z,5.44
2023-11-09T02:39:54.384Z,5.63
2023-11-09T02:42:21.710Z,5.57
2023-11-09T02:44:48.264Z,5.54
2023-11-09T02:47:15.121Z,5.69
2023-11-09T02:49:42.308Z,5.63
2023-11-09T02:52:08.980Z,5.77
2023-11-09T02:54:35.595Z,5.89
2023-11-09T02:57:02.433Z,5.92
2023-11-09T02:59:29.022Z,5.90
2023-11-09T03:01:58.134Z,6.03
2023-11-09T03:04:25.110Z,5.84
2023-11-09T03:06:51.732Z,5.89
2023-11-09T03:09:19.622Z,5.90
2023-11-09T03:11:46.179Z,5.95
2023-11-09T03:14:12.879Z,5.85
2023-11-09T03:16:39.656Z,6.06
2023-11-09T03:19:08.265Z,6.04
2023-11-09T03:21:36.076Z,5.77
2023-11-09T03:24:02.752Z,5.70
2023-11-09T03:26:30.608Z,5.74
2023-11-09T03:28:57.918Z,5.68
2023-11-09T03:31:24.703Z,5.68
2023-11-09T03:33:51.332Z,5.74
2023-11-09T03:36:21.140Z,5.70
2023-11-09T03:38:47.969Z,5.53
2023-11-09T03:41:14.625Z,5.68
2023-11-09T03:43:41.518Z,5.66
2023-11-09T03:46:15.871Z,5.66
2023-11-09T03:48:42.609Z,5.47
2023-11-09T03:51:09.758Z,5.42
2023-11-09T03:53:37.451Z,5.36
2023-11-09T03:56:04.356Z,5.37
2023-11-09T03:58:31.976Z,5.37
2023-11-09T04:00:58.651Z,4.97
2023-11-09T04:03:25.523Z,5.05
2023-11-09T04:05:52.629Z,5.24
2023-11-09T04:08:19.940Z,5.22
2023-11-09T04:10:47.604Z,5.20
2023-11-09T04:13:14.432Z,5.21
2023-11-09T04:15:44.190Z,5.00
2023-11-09T04:18:10.926Z,5.27
2023-11-09T04:20:37.861Z,5.19
2023-11-09T04:23:04.534Z,5.26
2023-11-09T04:25:31.241Z,5.23
2023-11-09T04:27:58.428Z,4.93
2023-11-09T04:30:29.426Z,5.28
2023-11-09T04:32:58.758Z,5.23
2023-11-09T04:35:28.485Z,5.28
2023-11-09T04:37:55.972Z,5.16
2023-11-09T04:40:26.571Z,5.23
2023-11-09T04:42:54.362Z,5.14
2023-11-09T04:45:21.098Z,5.30
2023-11-09T04:47:49.096Z,5.33
2023-11-09T04:50:16.808Z,5.28
2023-11-09T04:52:53.358Z,5.42
2023-11-09T04:55:33.410Z,5.23
2023-11-09T04:58:21.388Z,5.33
2023-11-09T05:01:06.688Z,5.33
2023-11-09T05:03:51.902Z,5.30
2023-11-09T05:06:36.682Z,5.18
2023-11-09T05:09:03.709Z,5.48
2023-11-09T05:11:30.413Z,5.45
2023-11-09T05:13:57.018Z,5.28
2023-11-09T05:16:23.673Z,5.49
2023-11-09T05:18:50.641Z,5.51
2023-11-09T05:21:17.290Z,5.51
2023-11-09T05:23:44.018Z,5.68
2023-11-09T05:26:10.620Z,5.77
2023-11-09T05:28:37.345Z,5.61
2023-11-09T05:31:04.423Z,5.49
2023-11-09T05:33:31.176Z,5.30
2023-11-09T05:35:58.845Z,5.68
2023-11-09T05:38:25.386Z,5.82
2023-11-09T05:40:51.999Z,5.92
2023-11-09T05:43:18.928Z,5.57
2023-11-09T05:45:45.532Z,5.53
2023-11-09T05:48:13.774Z,5.37
2023-11-09T05:50:40.973Z,5.44
2023-11-09T05:53:07.601Z,5.42
2023-11-09T05:55:34.962Z,5.31
2023-11-09T05:58:01.718Z,5.47
2023-11-09T06:00:29.414Z,5.10
2023-11-09T06:02:56.195Z,5.43
2023-11-09T06:05:25.942Z,5.43
2023-11-09T06:07:54.258Z,5.39
2023-11-09T06:10:21.858Z,5.35
2023-11-09T06:12:48.713Z,5.51
2023-11-09T06:15:16.777Z,5.57
2023-11-09T06:17:46.767Z,5.48
2023-11-09T06:20:14.368Z,5.73
2023-11-09T06:22:42.163Z,5.92
2023-11-09T06:25:11.179Z,5.83
2023-11-09T06:27:38.742Z,5.53
2023-11-09T06:30:07.821Z,5.74
2023-11-09T06:32:37.681Z,5.50
2023-11-09T06:35:05.429Z,5.68
2023-11-09T06:37:34.242Z,5.51
2023-11-09T06:40:04.962Z,5.78
2023-11-09T06:42:31.876Z,5.66
2023-11-09T06:44:58.528Z,5.44
2023-11-09T06:47:25.550Z,5.82
2023-11-09T06:49:52.102Z,5.78
2023-11-09T06:52:19.084Z,5.89
2023-11-09T06:54:45.695Z,5.86
2023-11-09T06:57:12.714Z,6.31
2023-11-09T06:59:39.922Z,6.30
2023-11-09T07:02:08.460Z,6.34
2023-11-09T07:04:35.659Z,6.34
2023-11-09T07:07:02.600Z,6.47
2023-11-09T07:09:29.498Z,6.61
2023-11-09T07:11:56.208Z,6.38
2023-11-09T07:14:24.566Z,6.44
2023-11-09T07:16:55.042Z,6.36
2023-11-09T07:19:24.081Z,6.35
2023-11-09T07:21:50.952Z,6.43
2023-11-09T07:24:19.126Z,6.23
2023-11-09T07:26:46.534Z,6.30
2023-11-09T07:29:13.275Z,6.25
2023-11-09T07:31:40.612Z,6.20
2023-11-09T07:34:07.291Z,6.05
2023-11-09T07:36:33.885Z,6.06
2023-11-09T07:39:01.955Z,6.54
2023-11-09T07:41:30.443Z,6.28
2023-11-09T07:43:57.073Z,6.36
2023-11-09T07:46:23.824Z,6.31
2023-11-09T07:48:50.529Z,6.27
2023-11-09T07:51:17.410Z,5.97
2023-11-09T07:53:44.060Z,6.39
2023-11-09T07:56:12.385Z,6.25
2023-11-09T07:58:39.821Z,6.42
2023-11-09T08:01:07.774Z,6.47
2023-11-09T08:03:35.311Z,6.59
2023-11-09T08:06:03.967Z,6.47
2023-11-09T08:08:31.809Z,6.55
2023-11-09T08:10:59.461Z,6.65
2023-11-09T08:13:29.482Z,6.58
2023-11-09T08:15:58.249Z,6.39
2023-11-09T08:18:24.877Z,6.29
2023-11-09T08:20:51.616Z,6.59
2023-11-09T08:23:18.222Z,6.74
2023-11-09T08:25:45.313Z,6.73
2023-11-09T08:28:12.842Z,6.78
2023-11-09T08:30:39.886Z,6.85
2023-11-09T08:33:09.841Z,6.77
2023-11-09T08:35:38.159Z,7.08
2023-11-09T08:38:06.913Z,7.18
2023-11-09T08:40:34.094Z,6.70
2023-11-09T08:43:00.819Z,6.65
2023-11-09T08:45:30.246Z,6.60
2023-11-09T08:47:57.510Z,7.09
2023-11-09T08:50:25.952Z,6.64
2023-11-09T08:52:54.453Z,6.91
2023-11-09T08:55:24.485Z,6.90
2023-11-09T08:57:54.182Z,6.58
2023-11-09T09:00:24.711Z,6.55
2023-11-09T09:02:52.742Z,6.43
2023-11-09T09:05:21.980Z,6.51
2023-11-09T09:07:51.810Z,6.88
2023-11-09T09:10:22.694Z,6.82
2023-11-09T09:12:51.823Z,6.88
2023-11-09T09:15:19.470Z,6.98
2023-11-09T09:17:47.056Z,7.07
2023-11-09T09:20:22.206Z,7.06
2023-11-09T09:22:51.400Z,6.98
2023-11-09T09:25:18.137Z,7.00
2023-11-09T09:27:49.774Z,6.44
2023-11-09T09:30:19.864Z,7.05
2023-11-09T09:32:52.052Z,7.00
2023-11-09T09:35:23.278Z,6.82
2023-11-09T09:37:52.081Z,7.25
2023-11-09T09:40:33.063Z,6.91
2023-11-09T09:43:03.456Z,7.38
2023-11-09T09:45:34.441Z,7.35
2023-11-09T09:48:02.867Z,8.02
2023-11-09T09:50:40.147Z,7.66
2023-11-09T09:53:10.835Z,7.72
2023-11-09T09:55:38.924Z,8.18
2023-11-09T09:58:09.773Z,7.97
2023-11-09T10:00:38.254Z,8.52
2023-11-09T10:03:08.801Z,8.46
2023-11-09T10:05:37.633Z,8.45
2023-11-09T10:08:14.350Z,7.89
2023-11-09T10:10:51.797Z,8.50
2023-11-09T10:13:21.348Z,8.60
2023-11-09T10:15:56.544Z,8.32
2023-11-09T10:18:31.979Z,7.93
2023-11-09T10:21:02.143Z,7.64
2023-11-09T10:23:28.901Z,7.41
2023-11-09T10:26:00.469Z,7.48
2023-11-09T10:28:30.016Z,7.29
2023-11-09T10:30:57.460Z,7.23
2023-11-09T10:33:25.301Z,7.45
2023-11-09T10:35:53.908Z,7.06
2023-11-09T10:38:25.351Z,7.73
2023-11-09T10:41:14.892Z,8.07
2023-11-09T10:43:43.893Z,8.30
2023-11-09T10:46:11.131Z,8.37
2023-11-09T10:48:42.151Z,8.28
2023-11-09T10:51:11.100Z,8.71
2023-11-09T10:53:39.045Z,7.95
2023-11-09T10:56:11.708Z,8.10
2023-11-09T10:58:42.122Z,8.40
2023-11-09T11:01:11.995Z,8.65
2023-11-09T11:03:45.701Z,8.71
2023-11-09T11:06:18.315Z,8.74
2023-11-09T11:08:51.740Z,8.86
2023-11-09T11:11:29.733Z,8.92
2023-11-09T11:14:04.427Z,8.57
2023-11-09T11:16:49.980Z,8.62
2023-11-09T11:19:24.233Z,8.07
2023-11-09T11:21:58.642Z,8.21
2023-11-09T11:24:54.797Z,8.25
2023-11-09T11:27:45.587Z,8.27
2023-11-09T11:30:27.248Z,8.50
2023-11-09T11:32:57.656Z,8.18
2023-11-09T11:35:47.630Z,8.04
2023-11-09T11:38:17.845Z,8.31
2023-11-09T11:40:47.061Z,8.02
2023-11-09T11:43:15.446Z,8.04
2023-11-09T11:45:43.023Z,7.92
2023-11-09T11:48:20.524Z,7.79
2023-11-09T11:50:49.342Z,7.63
2023-11-09T11:53:31.278Z,7.27
2023-11-09T11:56:11.916Z,7.15
2023-11-09T11:58:47.309Z,7.24
2023-11-09T12:01:32.354Z,7.03
2023-11-09T12:04:04.957Z,6.92
2023-11-09T12:06:36.232Z,6.90
2023-11-09T12:09:09.618Z,6.41
2023-11-09T12:11:45.704Z,6.64
2023-11-09T12:14:13.876Z,6.50
2023-11-09T12:16:41.192Z,6.54
2023-11-09T12:19:12.539Z,6.48
2023-11-09T12:21:39.982Z,6.15
2023-11-09T12:24:10.842Z,6.41
2023-11-09T12:26:37.518Z,6.38
2023-11-09T12:29:05.259Z,6.47
2023-11-09T12:31:32.075Z,6.50
2023-11-09T12:34:08.963Z,6.46
2023-11-09T12:36:42.982Z,6.00
2023-11-09T12:39:30.771Z,6.36
2023-11-09T12:41:59.206Z,6.13
2023-11-09T12:44:31.498Z,6.26
2023-11-09T12:47:26.965Z,6.41
2023-11-09T12:50:02.282Z,6.07
2023-11-09T12:52:29.832Z,6.10
2023-11-09T12:54:57.629Z,6.25
2023-11-09T12:57:24.579Z,6.70
2023-11-09T12:59:52.503Z,6.59
2023-11-09T13:02:20.526Z,6.74
2023-11-09T13:04:48.039Z,6.26
2023-11-09T13:07:15.752Z,6.63
2023-11-09T13:09:43.722Z,6.28
2023-11-09T13:12:28.790Z,6.16
2023-11-09T13:15:09.317Z,6.59
2023-11-09T13:17:53.794Z,6.61
2023-11-09T13:20:38.392Z,6.61
2023-11-09T13:23:12.889Z,6.37
2023-11-09T13:25:50.735Z,6.20
2023-11-09T13:28:18.995Z,6.05
2023-11-09T13:30:54.409Z,6.33
2023-11-09T13:33:30.217Z,6.67
2023-11-09T13:35:59.293Z,6.42
2023-11-09T13:38:35.263Z,6.30
2023-11-09T13:41:11.292Z,6.50
2023-11-09T13:43:38.167Z,6.60
2023-11-09T13:46:12.602Z,6.30
2023-11-09T13:48:46.667Z,6.05
2023-11-09T13:51:16.142Z,6.66
2023-11-09T13:53:51.515Z,6.13
2023-11-09T13:56:18.147Z,6.08
2023-11-09T13:58:49.063Z,5.97
2023-11-09T14:01:29.320Z,6.30
2023-11-09T14:03:56.579Z,6.18
2023-11-09T14:06:23.645Z,6.33
2023-11-09T14:08:52.361Z,6.06
2023-11-09T14:11:24.216Z,6.44
2023-11-09T14:13:51.512Z,6.42
2023-11-09T14:16:21.097Z,6.20
2023-11-09T14:19:21.697Z,5.84
2023-11-09T14:21:48.994Z,5.99
2023-11-09T14:24:20.494Z,5.96
2023-11-09T14:26:49.609Z,6.08
2023-11-09T14:29:20.104Z,5.95
2023-11-09T14:31:46.742Z,5.91
2023-11-09T14:34:18.275Z,6.20
2023-11-09T14:36:49.776Z,6.04
2023-11-09T14:39:52.936Z,6.31
2023-11-09T14:42:19.717Z,5.91
2023-11-09T14:44:48.339Z,5.96
2023-11-09T14:47:19.674Z,5.87
2023-11-09T14:49:53.822Z,5.51
2023-11-09T14:52:39.902Z,5.80
2023-11-09T14:55:06.986Z,5.58
2023-11-09T14:57:33.720Z,5.73
2023-11-09T15:00:00.530Z,5.60
2023-11-09T15:02:30.454Z,5.97
2023-11-09T15:04:57.249Z,5.55
2023-11-09T15:07:24.009Z,5.64
2023-11-09T15:09:51.757Z,5.72
2023-11-09T15:12:19.729Z,5.69
2023-11-09T15:14:51.779Z,5.86
2023-11-09T15:17:18.543Z,5.52
2023-11-09T15:19:45.177Z,5.57
2023-11-09T15:22:15.696Z,5.28
2023-11-09T15:24:44.607Z,5.79
2023-11-09T15:27:16.806Z,5.30
2023-11-09T15:29:43.550Z,5.44
2023-11-09T15:32:15.250Z,5.17
2023-11-09T15:34:47.759Z,5.34
2023-11-09T15:37:17.380Z,5.65
2023-11-09T15:40:12.691Z,5.12
2023-11-09T15:42:37.912Z,5.20
2023-11-09T15:45:08.364Z,4.64
2023-11-09T15:47:37.079Z,5.24
2023-11-09T15:50:06.977Z,5.41
2023-11-09T15:52:36.629Z,5.01
2023-11-09T15:55:07.660Z,5.48
2023-11-09T15:57:49.046Z,5.66
2023-11-09T16:00:20.512Z,5.01
2023-11-09T16:02:51.277Z,4.48
2023-11-09T16:05:23.506Z,5.11
2023-11-09T16:08:09.638Z,4.50
2023-11-09T16:10:37.679Z,5.18
2023-11-09T16:13:05.547Z,5.52
2023-11-09T16:15:32.696Z,5.00
2023-11-09T16:18:00.265Z,5.38
2023-11-09T16:20:36.869Z,5.49
2023-11-09T16:23:10.641Z,5.03
2023-11-09T16:25:47.690Z,5.11
2023-11-09T16:28:21.194Z,5.17
2023-11-09T16:30:48.480Z,5.22
2023-11-09T16:33:15.374Z,5.15
2023-11-09T16:35:42.359Z,5.38
2023-11-09T16:38:12.696Z,5.19
2023-11-09T16:40:39.906Z,5.12
2023-11-09T16:43:09.061Z,5.02
2023-11-09T16:45:36.229Z,5.32
2023-11-09T16:48:04.731Z,5.39
2023-11-09T16:50:31.710Z,5.25
2023-11-09T16:52:58.594Z,5.11
2023-11-09T16:55:25.370Z,5.44
2023-11-09T16:57:52.711Z,5.30
2023-11-09T17:00:19.859Z,5.10
2023-11-09T17:02:47.958Z,4.95
2023-11-09T17:05:15.276Z,5.05
2023-11-09T17:07:45.252Z,5.17
2023-11-09T17:10:13.954Z,5.06
2023-11-09T17:12:41.630Z,5.34
2023-11-09T17:15:11.519Z,4.97
2023-11-09T17:17:42.473Z,5.06
2023-11-09T17:20:11.356Z,5.24
2023-11-09T17:22:38.861Z,5.15
2023-11-09T17:25:06.783Z,5.09
2023-11-09T17:27:33.536Z,5.56
2023-11-09T17:30:05.637Z,5.66
2023-11-09T17:32:32.487Z,5.25
2023-11-09T17:34:59.307Z,5.07
2023-11-09T17:37:26.028Z,5.30
2023-11-09T17:39:52.764Z,5.07
2023-11-09T17:42:19.432Z,5.01
2023-11-09T17:44:46.325Z,5.20
2023-11-09T17:47:14.587Z,5.47
2023-11-09T17:49:41.292Z,5.09
2023-11-09T17:52:08.775Z,5.11
2023-11-09T17:54:35.408Z,5.35
2023-11-09T17:57:04.457Z,5.02
2023-11-09T17:59:31.173Z,4.91
2023-11-09T18:01:58.198Z,4.99
2023-11-09T18:04:26.754Z,5.08
2023-11-09T18:06:53.430Z,5.13
2023-11-09T18:09:21.196Z,5.04
2023-11-09T18:11:50.573Z,4.86
2023-11-09T18:14:21.044Z,5.14
2023-11-09T18:16:51.189Z,4.79
2023-11-09T18:19:18.584Z,4.97
2023-11-09T18:21:48.417Z,4.86
2023-11-09T18:24:15.438Z,4.90
2023-11-09T18:26:42.965Z,4.85
2023-11-09T18:29:09.814Z,5.11
2023-11-09T18:31:36.589Z,5.06
2023-11-09T18:34:03.582Z,5.06
2023-11-09T18:36:31.992Z,5.13
2023-11-09T18:39:00.225Z,4.74
2023-11-09T18:41:28.164Z,4.95
2023-11-09T18:43:58.113Z,5.38
2023-11-09T18:46:25.205Z,5.27
2023-11-09T18:48:52.069Z,5.18
2023-11-09T18:51:19.838Z,5.09
2023-11-09T18:53:47.398Z,5.40
2023-11-09T18:56:18.014Z,5.39
2023-11-09T18:58:44.891Z,5.51
2023-11-09T19:01:12.031Z,5.47
2023-11-09T19:06:08.565Z,5.33
2023-11-09T19:08:36.998Z,5.28
2023-11-09T19:11:06.862Z,4.87
2023-11-09T19:13:33.830Z,4.87
2023-11-09T19:16:00.545Z,4.82
2023-11-09T19:18:27.358Z,4.56
2023-11-09T19:23:26.843Z,4.63
2023-11-09T19:25:55.087Z,4.46
2023-11-09T19:28:25.822Z,4.39
2023-11-09T19:30:55.555Z,4.32
2023-11-09T19:33:22.270Z,4.28
2023-11-09T19:35:48.886Z,4.18
2023-11-09T19:38:15.568Z,4.21
2023-11-09T19:40:48.683Z,4.22
2023-11-09T19:43:15.599Z,4.17
2023-11-09T19:45:44.196Z,4.14
2023-11-09T19:48:13.425Z,4.08
2023-11-09T19:50:40.877Z,4.16
2023-11-09T19:53:10.797Z,4.05
2023-11-09T19:55:37.736Z,4.07
2023-11-09T19:58:05.512Z,4.18
2023-11-09T20:00:32.861Z,4.42
2023-11-09T20:03:04.548Z,4.10
2023-11-09T20:05:34.410Z,4.27
2023-11-09T20:08:01.034Z,4.14
2023-11-09T20:10:28.075Z,4.36
2023-11-09T20:12:54.872Z,4.35
2023-11-09T20:15:27.761Z,4.50
2023-11-09T20:17:55.349Z,4.49
2023-11-09T20:20:22.506Z,4.54
2023-11-09T20:22:49.329Z,4.33
2023-11-09T20:25:16.281Z,4.52
2023-11-09T20:27:43.059Z,3.96
2023-11-09T20:30:14.542Z,4.09
2023-11-09T20:32:43.469Z,4.48
2023-11-09T20:35:11.430Z,4.22
2023-11-09T20:37:40.855Z,4.32
2023-11-09T20:40:11.641Z,4.61
2023-11-09T20:42:40.507Z,4.35
2023-11-09T20:45:09.714Z,4.40
2023-11-09T20:47:40.476Z,4.50
2023-11-09T20:50:15.260Z,4.37
2023-11-09T20:52:45.486Z,4.12
2023-11-09T20:55:18.815Z,4.37
2023-11-09T20:57:46.254Z,4.36
2023-11-09T21:00:14.323Z,4.23
2023-11-09T21:02:42.466Z,4.41
2023-11-09T21:05:10.490Z,4.20
2023-11-09T21:07:39.442Z,4.25
2023-11-09T21:10:12.957Z,3.85
2023-11-09T21:12:42.917Z,3.98
2023-11-09T21:15:11.810Z,3.90
2023-11-09T21:17:40.778Z,3.71
2023-11-09T21:20:08.423Z,3.71
2023-11-09T21:22:35.053Z,3.58
2023-11-09T21:25:01.949Z,3.73
2023-11-09T21:27:29.081Z,3.72
2023-11-09T21:29:55.748Z,3.49
2023-11-09T21:32:22.632Z,3.61
2023-11-09T21:34:49.717Z,3.48
2023-11-09T21:37:16.475Z,3.32
2023-11-09T21:39:45.957Z,3.55
2023-11-09T21:42:13.061Z,3.40
2023-11-09T21:44:40.339Z,3.43
2023-11-09T21:47:07.208Z,3.87
2023-11-09T21:49:36.573Z,3.74
2023-11-09T21:52:05.077Z,4.01
2023-11-09T21:54:31.696Z,3.85
2023-11-09T21:56:59.771Z,3.71
2023-11-09T21:59:29.993Z,3.97
2023-11-09T22:01:56.987Z,4.15
2023-11-09T22:04:23.819Z,4.18
2023-11-09T22:06:53.561Z,3.96
2023-11-09T22:09:22.239Z,4.08
2023-11-09T22:11:49.658Z,4.12
2023-11-09T22:14:16.608Z,3.78
2023-11-09T22:16:43.466Z,3.98
2023-11-09T22:19:10.503Z,3.92
2023-11-09T22:21:37.839Z,3.87
2023-11-09T22:24:05.102Z,3.74
2023-11-09T22:26:34.050Z,3.82
2023-11-09T22:29:00.735Z,3.39
2023-11-09T22:31:27.378Z,3.21
2023-11-09T22:33:54.132Z,2.96
2023-11-09T22:36:20.949Z,3.20
2023-11-09T22:38:47.779Z,3.00
2023-11-09T22:41:14.439Z,2.82
2023-11-09T22:43:41.083Z,2.76
2023-11-09T22:46:07.870Z,2.74
2023-11-09T22:48:34.498Z,2.60
2023-11-09T22:51:02.030Z,2.94
2023-11-09T22:53:28.666Z,3.02
2023-11-09T22:55:55.972Z,2.85
2023-11-09T22:58:24.440Z,3.04
2023-11-09T23:00:51.936Z,3.22
2023-11-09T23:03:19.508Z,3.25
2023-11-09T23:05:47.335Z,3.70
2023-11-09T23:08:17.217Z,3.57
2023-11-09T23:10:45.460Z,3.23
2023-11-09T23:13:13.887Z,3.56
2023-11-09T23:15:40.663Z,3.43
2023-11-09T23:18:07.718Z,3.19
2023-11-09T23:20:36.056Z,3.25
2023-11-09T23:23:03.229Z,2.99
2023-11-09T23:25:30.182Z,3.22
2023-11-09T23:27:57.397Z,3.36
2023-11-09T23:30:24.356Z,3.25
2023-11-09T23:32:51.032Z,3.09
2023-11-09T23:35:18.280Z,3.26
2023-11-09T23:37:48.386Z,3.32
2023-11-09T23:40:16.042Z,3.21
2023-11-09T23:42:43.343Z,3.33
2023-11-09T23:45:10.632Z,3.37
2023-11-09T23:47:40.772Z,3.21
2023-11-09T23:50:09.312Z,3.45
2023-11-09T23:52:36.507Z,3.27
2023-11-09T23:55:04.653Z,3.42
2023-11-09T23:57:32.678Z,3.42
2023-11-09T23:59:59.433Z,3.18
